createdAt,value
2017-08-19T00:02:06.920Z,4.77
2017-08-19T00:04:35.197Z,4.27
2017-08-19T00:07:03.449Z,4.63
2017-08-19T00:09:31.730Z,4.47
2017-08-19T00:12:00.788Z,4.83
2017-08-19T00:14:29.033Z,5.00
2017-08-19T00:16:57.285Z,4.60
2017-08-19T00:19:25.590Z,4.33
2017-08-19T00:21:54.650Z,4.90
2017-08-19T00:24:22.900Z,5.33
2017-08-19T00:26:51.198Z,4.57
2017-08-19T00:29:19.479Z,4.87
2017-08-19T00:31:47.715Z,5.20
2017-08-19T00:34:16.025Z,5.20
2017-08-19T00:36:44.268Z,4.80
2017-08-19T00:39:12.558Z,4.50
2017-08-19T00:41:40.832Z,5.23
2017-08-19T00:44:09.085Z,5.50
2017-08-19T00:46:37.386Z,4.77
2017-08-19T00:49:06.325Z,4.67
2017-08-19T00:51:34.574Z,4.80
2017-08-19T00:54:02.858Z,5.20
2017-08-19T00:56:31.189Z,5.10
2017-08-19T00:58:59.478Z,5.10
2017-08-19T01:01:27.732Z,5.23
2017-08-19T01:03:56.039Z,5.10
2017-08-19T01:06:24.332Z,5.30
2017-08-19T01:08:52.585Z,4.73
2017-08-19T01:11:20.860Z,4.80
2017-08-19T01:13:49.138Z,5.57
2017-08-19T01:16:17.385Z,5.40
2017-08-19T01:18:45.690Z,4.70
2017-08-19T01:21:14.706Z,4.80
2017-08-19T01:23:42.949Z,5.17
2017-08-19T01:26:22.607Z,4.63
2017-08-19T01:28:50.911Z,4.90
2017-08-19T01:31:19.167Z,4.53
2017-08-19T01:33:47.449Z,4.63
2017-08-19T01:36:16.452Z,5.10
2017-08-19T01:38:44.705Z,3.77
2017-08-19T01:41:13.006Z,4.07
2017-08-19T01:43:41.351Z,4.37
2017-08-19T01:46:09.622Z,4.03
2017-08-19T01:48:37.913Z,4.20
2017-08-19T01:51:06.958Z,3.90
2017-08-19T01:53:35.221Z,4.40
2017-08-19T01:56:03.574Z,3.70
2017-08-19T01:58:31.831Z,3.40
2017-08-19T02:01:00.071Z,4.00
2017-08-19T02:03:28.435Z,4.20
2017-08-19T02:05:56.676Z,3.60
2017-08-19T02:08:24.965Z,3.50
2017-08-19T02:10:53.270Z,4.10
2017-08-19T02:13:22.324Z,3.60
2017-08-19T02:15:50.601Z,4.10
2017-08-19T02:18:18.914Z,3.90
2017-08-19T02:20:47.169Z,3.80
2017-08-19T02:23:15.455Z,4.10
2017-08-19T02:25:43.732Z,3.70
2017-08-19T02:28:11.977Z,4.30
2017-08-19T02:30:40.229Z,3.73
2017-08-19T02:33:08.535Z,3.63
2017-08-19T02:35:37.584Z,3.73
2017-08-19T02:38:05.845Z,4.10
2017-08-19T02:40:34.158Z,3.87
2017-08-19T02:43:02.447Z,3.57
2017-08-19T02:45:30.697Z,4.00
2017-08-19T02:47:59.006Z,3.80
2017-08-19T02:50:27.286Z,4.40
2017-08-19T02:52:56.301Z,3.97
2017-08-19T02:55:24.584Z,3.60
2017-08-19T02:57:52.857Z,3.50
2017-08-19T03:00:21.105Z,3.90
2017-08-19T03:02:49.377Z,4.00
2017-08-19T03:05:17.625Z,4.40
2017-08-19T03:07:45.877Z,4.17
2017-08-19T03:10:14.146Z,4.77
2017-08-19T03:12:42.434Z,4.90
2017-08-19T03:15:11.444Z,4.43
2017-08-19T03:17:39.824Z,4.87
2017-08-19T03:20:08.126Z,4.47
2017-08-19T03:22:37.187Z,4.57
2017-08-19T03:25:05.507Z,4.33
2017-08-19T03:27:33.758Z,5.03
2017-08-19T03:30:02.013Z,4.70
2017-08-19T03:32:31.184Z,4.83
2017-08-19T03:34:59.482Z,5.10
2017-08-19T03:37:27.735Z,4.80
2017-08-19T03:39:55.996Z,4.70
2017-08-19T03:42:24.287Z,5.23
2017-08-19T03:44:52.525Z,4.40
2017-08-19T03:47:20.809Z,4.30
2017-08-19T03:49:49.053Z,3.73
2017-08-19T03:52:17.340Z,3.03
2017-08-19T03:54:46.421Z,2.87
2017-08-19T03:57:14.736Z,2.97
2017-08-19T03:59:43.043Z,3.20
2017-08-19T04:02:12.109Z,3.07
2017-08-19T04:04:40.353Z,2.80
2017-08-19T04:07:08.609Z,2.97
2017-08-19T04:09:36.914Z,2.97
2017-08-19T04:12:05.168Z,2.70
2017-08-19T04:14:34.210Z,2.73
2017-08-19T04:17:02.501Z,2.57
2017-08-19T04:19:31.521Z,2.50
2017-08-19T04:21:59.765Z,2.73
2017-08-19T04:24:28.072Z,3.30
2017-08-19T04:26:56.321Z,2.53
2017-08-19T04:29:24.567Z,2.67
2017-08-19T04:31:52.882Z,2.47
2017-08-19T04:34:21.939Z,2.37
2017-08-19T04:36:50.223Z,2.40
2017-08-19T04:39:19.258Z,2.57
2017-08-19T04:41:47.505Z,2.30
2017-08-19T04:44:15.757Z,2.50
2017-08-19T04:46:44.058Z,2.30
2017-08-19T04:49:12.351Z,2.37
2017-08-19T04:51:40.642Z,2.27
2017-08-19T04:54:08.932Z,2.00
2017-08-19T04:56:37.210Z,2.17
2017-08-19T04:59:06.241Z,2.00
2017-08-19T05:01:34.534Z,2.20
2017-08-19T05:04:02.818Z,1.80
2017-08-19T05:06:31.097Z,1.90
2017-08-19T05:08:59.365Z,2.10
2017-08-19T05:11:27.655Z,1.80
2017-08-19T05:13:55.912Z,2.23
2017-08-19T05:16:24.184Z,1.77
2017-08-19T05:18:52.470Z,1.83
2017-08-19T05:21:21.486Z,2.03
2017-08-19T05:23:49.778Z,1.80
2017-08-19T05:26:18.066Z,1.80
2017-08-19T05:28:47.131Z,1.67
2017-08-19T05:31:15.440Z,1.90
2017-08-19T05:33:43.734Z,1.63
2017-08-19T05:36:12.745Z,1.50
2017-08-19T05:38:41.033Z,1.70
2017-08-19T05:41:09.293Z,1.90
2017-08-19T05:43:37.554Z,2.13
2017-08-19T05:46:06.561Z,1.67
2017-08-19T05:48:35.605Z,2.00
2017-08-19T05:51:03.881Z,1.77
2017-08-19T05:53:32.185Z,1.70
2017-08-19T05:56:00.437Z,1.67
2017-08-19T05:58:28.714Z,1.90
2017-08-19T06:00:57.093Z,1.70
2017-08-19T06:03:25.380Z,1.60
2017-08-19T06:05:53.674Z,1.77
2017-08-19T06:08:21.948Z,1.73
2017-08-19T06:10:50.217Z,1.60
2017-08-19T06:13:18.518Z,1.80
2017-08-19T06:15:46.797Z,2.00
2017-08-19T06:18:15.845Z,1.67
2017-08-19T06:20:44.122Z,1.87
2017-08-19T06:23:12.471Z,1.80
2017-08-19T06:25:40.729Z,1.50
2017-08-19T06:28:09.028Z,1.87
2017-08-19T06:30:37.327Z,1.70
2017-08-19T06:33:05.576Z,1.43
2017-08-19T06:35:34.786Z,1.50
2017-08-19T06:38:03.114Z,1.83
2017-08-19T06:40:32.133Z,1.93
2017-08-19T06:43:00.410Z,2.00
2017-08-19T06:45:28.700Z,1.70
2017-08-19T06:47:57.020Z,1.93
2017-08-19T06:50:25.286Z,1.80
2017-08-19T06:52:53.587Z,1.70
2017-08-19T06:55:22.605Z,1.70
2017-08-19T06:57:50.895Z,1.80
2017-08-19T07:00:18.998Z,2.00
2017-08-19T07:02:47.240Z,1.83
2017-08-19T07:05:16.281Z,2.07
2017-08-19T07:07:44.596Z,1.83
2017-08-19T07:10:12.903Z,2.00
2017-08-19T07:12:41.160Z,1.97
2017-08-19T07:15:09.458Z,2.03
2017-08-19T07:17:39.581Z,2.10
2017-08-19T07:20:07.856Z,1.97
2017-08-19T07:22:36.108Z,1.90
2017-08-19T07:25:04.392Z,2.07
2017-08-19T07:27:33.506Z,1.90
2017-08-19T07:30:01.875Z,2.07
2017-08-19T07:32:30.951Z,1.70
2017-08-19T07:34:59.248Z,2.20
2017-08-19T07:37:27.621Z,1.83
2017-08-19T07:39:55.884Z,1.90
2017-08-19T07:42:24.197Z,1.80
2017-08-19T07:44:53.250Z,1.97
2017-08-19T07:47:21.550Z,1.50
2017-08-19T07:49:49.839Z,1.90
2017-08-19T07:52:18.159Z,1.60
2017-08-19T07:54:47.177Z,1.97
2017-08-19T07:57:15.429Z,1.80
2017-08-19T07:59:43.730Z,1.90
2017-08-19T08:02:11.996Z,2.00
2017-08-19T08:04:40.285Z,2.00
2017-08-19T08:07:09.304Z,1.80
2017-08-19T08:09:37.598Z,1.67
2017-08-19T08:12:05.886Z,1.90
2017-08-19T08:14:34.978Z,1.70
2017-08-19T08:17:03.238Z,1.80
2017-08-19T08:19:31.476Z,1.70
2017-08-19T08:22:00.508Z,1.83
2017-08-19T08:24:28.755Z,1.90
2017-08-19T08:26:56.995Z,1.90
2017-08-19T08:29:25.295Z,1.97
2017-08-19T08:31:53.588Z,1.60
2017-08-19T08:34:22.646Z,1.70
2017-08-19T08:36:50.950Z,2.23
2017-08-19T08:39:19.527Z,2.10
2017-08-19T08:41:47.781Z,1.70
2017-08-19T08:44:16.049Z,1.90
2017-08-19T08:46:44.297Z,1.60
2017-08-19T08:49:12.595Z,1.57
2017-08-19T08:51:40.893Z,1.80
2017-08-19T08:54:09.152Z,2.03
2017-08-19T08:56:38.165Z,1.77
2017-08-19T08:59:06.437Z,1.70
2017-08-19T09:01:34.722Z,1.93
2017-08-19T09:04:03.018Z,2.07
2017-08-19T09:06:31.311Z,1.80
2017-08-19T09:08:59.569Z,1.70
2017-08-19T09:11:27.854Z,1.57
2017-08-19T09:13:56.125Z,2.10
2017-08-19T09:16:24.411Z,1.70
2017-08-19T09:18:53.429Z,1.70
2017-08-19T09:21:21.730Z,1.97
2017-08-19T09:23:49.989Z,1.80
2017-08-19T09:26:18.235Z,2.03
2017-08-19T09:28:46.501Z,1.90
2017-08-19T09:31:14.791Z,1.90
2017-08-19T09:33:43.826Z,1.90
2017-08-19T09:36:12.127Z,2.07
2017-08-19T09:38:41.174Z,1.60
2017-08-19T09:41:09.457Z,2.03
2017-08-19T09:43:37.754Z,2.30
2017-08-19T09:46:06.097Z,1.90
2017-08-19T09:48:35.115Z,1.80
2017-08-19T09:51:03.406Z,1.90
2017-08-19T09:53:31.653Z,2.20
2017-08-19T09:56:01.929Z,2.10
2017-08-19T09:58:30.194Z,2.27
2017-08-19T10:00:58.478Z,2.20
2017-08-19T10:03:26.732Z,1.73
2017-08-19T10:05:55.056Z,2.13
2017-08-19T10:08:34.845Z,1.90
2017-08-19T10:11:14.719Z,1.77
2017-08-19T10:13:43.010Z,2.20
2017-08-19T10:16:11.077Z,1.83
2017-08-19T10:18:39.332Z,2.00
2017-08-19T10:21:07.585Z,1.73
2017-08-19T10:23:35.824Z,1.90
2017-08-19T10:26:04.146Z,1.73
2017-08-19T10:28:33.194Z,1.87
2017-08-19T10:31:01.491Z,1.70
2017-08-19T10:33:30.549Z,1.63
2017-08-19T10:35:58.832Z,1.60
2017-08-19T10:38:27.120Z,1.73
2017-08-19T10:40:55.418Z,1.50
2017-08-19T10:43:23.716Z,1.93
2017-08-19T10:45:51.960Z,2.10
2017-08-19T10:48:21.034Z,2.00
2017-08-19T10:50:49.318Z,1.87
2017-08-19T10:53:17.612Z,2.20
2017-08-19T10:55:45.873Z,1.70
2017-08-19T10:58:14.160Z,1.80
2017-08-19T11:00:42.419Z,2.10
2017-08-19T11:03:10.714Z,1.90
2017-08-19T11:05:38.989Z,2.10
2017-08-19T11:08:07.467Z,1.80
2017-08-19T11:10:35.753Z,2.00
2017-08-19T11:13:04.008Z,1.97
2017-08-19T11:15:32.305Z,1.93
2017-08-19T11:18:01.383Z,2.00
2017-08-19T11:20:30.430Z,2.10
2017-08-19T11:22:58.713Z,2.00
2017-08-19T11:25:26.989Z,2.13
2017-08-19T11:27:55.740Z,1.60
2017-08-19T11:30:24.030Z,2.00
2017-08-19T11:32:52.315Z,2.00
2017-08-19T11:35:20.592Z,2.20
2017-08-19T11:37:48.893Z,1.67
2017-08-19T11:40:17.858Z,1.70
2017-08-19T11:42:46.117Z,2.00
2017-08-19T11:45:14.146Z,1.90
2017-08-19T11:47:42.447Z,1.90
2017-08-19T11:50:11.492Z,1.63
2017-08-19T11:52:39.750Z,1.67
2017-08-19T11:55:08.020Z,1.70
2017-08-19T11:57:36.288Z,1.70
2017-08-19T12:00:04.949Z,1.80
2017-08-19T12:02:33.218Z,1.70
2017-08-19T12:05:01.457Z,1.70
2017-08-19T12:07:29.748Z,1.80
2017-08-19T12:09:58.822Z,1.87
2017-08-19T12:12:27.883Z,1.87
2017-08-19T12:14:56.166Z,1.40
2017-08-19T12:17:25.197Z,1.60
2017-08-19T12:19:53.477Z,1.70
2017-08-19T12:22:21.727Z,1.50
2017-08-19T12:24:49.992Z,1.60
2017-08-19T12:27:18.277Z,1.70
2017-08-19T12:29:47.337Z,1.90
2017-08-19T12:32:15.610Z,1.50
2017-08-19T12:34:43.886Z,1.83
2017-08-19T12:37:12.910Z,1.47
2017-08-19T12:39:41.205Z,1.50
2017-08-19T12:42:09.457Z,1.67
2017-08-19T12:44:37.730Z,1.63
2017-08-19T12:47:06.031Z,1.43
2017-08-19T12:49:34.305Z,1.60
2017-08-19T12:52:02.584Z,1.80
2017-08-19T12:54:30.849Z,1.40
2017-08-19T12:56:59.102Z,1.60
2017-08-19T12:59:27.389Z,1.50
2017-08-19T13:01:55.668Z,1.40
2017-08-19T13:04:24.725Z,1.77
2017-08-19T13:06:52.974Z,1.40
2017-08-19T13:09:21.240Z,1.83
2017-08-19T13:11:49.331Z,1.60
2017-08-19T13:14:17.585Z,1.40
2017-08-19T13:16:46.642Z,1.47
2017-08-19T13:19:14.890Z,1.57
2017-08-19T13:21:43.171Z,1.70
2017-08-19T13:24:12.245Z,1.50
2017-08-19T13:26:41.122Z,1.50
2017-08-19T13:29:09.413Z,1.33
2017-08-19T13:31:37.713Z,1.37
2017-08-19T13:34:06.007Z,1.57
2017-08-19T13:36:35.067Z,1.50
2017-08-19T13:39:02.896Z,1.40
2017-08-19T13:41:30.986Z,1.30
2017-08-19T13:43:59.236Z,1.30
2017-08-19T13:46:27.521Z,1.50
2017-08-19T13:48:56.561Z,1.60
2017-08-19T13:51:24.817Z,1.40
2017-08-19T13:53:53.119Z,1.60
2017-08-19T13:56:22.183Z,1.40
2017-08-19T13:58:51.220Z,1.60
2017-08-19T14:01:19.509Z,1.50
2017-08-19T14:03:47.798Z,1.40
2017-08-19T14:06:16.092Z,1.27
2017-08-19T14:08:44.364Z,1.60
2017-08-19T14:11:12.638Z,1.30
2017-08-19T14:13:40.921Z,1.50
2017-08-19T14:16:09.970Z,1.47
2017-08-19T14:18:38.233Z,1.40
2017-08-19T14:21:07.211Z,1.60
2017-08-19T14:23:35.518Z,1.40
2017-08-19T14:26:03.812Z,1.43
2017-08-19T14:28:32.072Z,1.50
2017-08-19T14:31:00.387Z,1.57
2017-08-19T14:33:28.681Z,1.43
2017-08-19T14:35:56.965Z,1.20
2017-08-19T14:38:25.237Z,1.40
2017-08-19T14:40:53.493Z,1.40
2017-08-19T14:43:21.747Z,1.20
2017-08-19T14:45:50.072Z,1.43
2017-08-19T14:48:18.325Z,1.20
2017-08-19T14:50:46.568Z,1.50
2017-08-19T14:53:15.610Z,1.50
2017-08-19T14:55:43.860Z,1.37
2017-08-19T14:58:12.112Z,1.20
2017-08-19T15:00:40.384Z,1.10
2017-08-19T15:03:08.640Z,1.50
2017-08-19T15:05:36.922Z,1.43
2017-08-19T15:08:05.227Z,1.20
2017-08-19T15:10:33.480Z,1.30
2017-08-19T15:13:01.763Z,1.20
2017-08-19T15:15:30.036Z,1.20
2017-08-19T15:17:58.282Z,1.17
2017-08-19T15:20:26.534Z,1.00
2017-08-19T15:22:54.812Z,1.23
2017-08-19T15:25:23.063Z,1.20
2017-08-19T15:27:51.342Z,1.03
2017-08-19T15:30:19.627Z,1.10
2017-08-19T15:32:47.877Z,1.20
2017-08-19T15:35:16.150Z,1.00
2017-08-19T15:37:44.425Z,1.07
2017-08-19T15:40:13.478Z,1.00
2017-08-19T15:42:41.725Z,1.10
2017-08-19T15:45:09.985Z,1.33
2017-08-19T15:47:38.271Z,1.03
2017-08-19T15:50:07.295Z,1.00
2017-08-19T15:52:35.369Z,0.83
2017-08-19T15:55:03.646Z,0.87
2017-08-19T15:57:31.888Z,1.10
2017-08-19T16:00:00.165Z,1.00
2017-08-19T16:02:28.466Z,1.20
2017-08-19T16:04:56.708Z,0.90
2017-08-19T16:07:25.018Z,1.00
2017-08-19T16:09:53.302Z,0.90
2017-08-19T16:12:21.545Z,0.90
2017-08-19T16:14:49.818Z,1.10
2017-08-19T16:17:18.080Z,0.90
2017-08-19T16:19:46.324Z,1.30
2017-08-19T16:22:14.640Z,1.10
2017-08-19T16:24:43.018Z,0.83
2017-08-19T16:27:11.312Z,1.00
2017-08-19T16:29:39.620Z,1.07
2017-08-19T16:32:07.873Z,1.00
2017-08-19T16:34:36.940Z,1.00
2017-08-19T16:37:05.231Z,1.00
2017-08-19T16:39:33.517Z,1.37
2017-08-19T16:42:01.765Z,1.00
2017-08-19T16:44:30.074Z,1.10
2017-08-19T16:46:58.383Z,1.30
2017-08-19T16:49:26.633Z,1.20
2017-08-19T16:51:54.929Z,1.20
2017-08-19T16:54:23.180Z,1.10
2017-08-19T16:56:51.497Z,1.23
2017-08-19T16:59:19.765Z,1.07
2017-08-19T17:01:48.050Z,1.20
2017-08-19T17:04:16.341Z,1.10
2017-08-19T17:06:44.628Z,1.20
2017-08-19T17:09:13.679Z,1.23
2017-08-19T17:11:41.971Z,1.00
2017-08-19T17:14:11.005Z,1.37
2017-08-19T17:16:39.285Z,1.50
2017-08-19T17:19:07.620Z,1.30
2017-08-19T17:21:35.884Z,1.37
2017-08-19T17:24:04.141Z,1.40
2017-08-19T17:26:32.423Z,1.47
2017-08-19T17:29:00.842Z,1.67
2017-08-19T17:31:29.088Z,1.27
2017-08-19T17:33:57.484Z,1.10
2017-08-19T17:36:25.759Z,1.20
2017-08-19T17:38:54.053Z,1.20
2017-08-19T17:41:23.068Z,1.37
2017-08-19T17:43:51.195Z,1.30
2017-08-19T17:46:19.494Z,1.37
2017-08-19T17:48:47.746Z,1.17
2017-08-19T17:51:16.051Z,1.10
2017-08-19T17:53:44.338Z,1.30
2017-08-19T17:56:12.740Z,1.30
2017-08-19T17:58:41.098Z,1.50
2017-08-19T18:01:09.389Z,1.60
2017-08-19T18:03:37.637Z,1.53
2017-08-19T18:06:06.622Z,1.50
2017-08-19T18:08:34.907Z,1.33
2017-08-19T18:11:03.932Z,1.40
2017-08-19T18:13:32.201Z,1.20
2017-08-19T18:16:00.446Z,1.43
2017-08-19T18:18:28.722Z,1.50
2017-08-19T18:20:57.020Z,2.00
2017-08-19T18:23:26.076Z,1.70
2017-08-19T18:25:54.375Z,2.27
2017-08-19T18:28:22.679Z,1.70
2017-08-19T18:30:50.979Z,1.90
2017-08-19T18:33:20.030Z,1.63
2017-08-19T18:35:48.323Z,1.47
2017-08-19T18:38:17.343Z,1.70
2017-08-19T18:40:45.592Z,1.80
2017-08-19T18:43:13.853Z,1.60
2017-08-19T18:45:42.126Z,1.80
2017-08-19T18:48:10.423Z,2.03
2017-08-19T18:50:39.497Z,1.80
2017-08-19T18:53:07.760Z,2.00
2017-08-19T18:55:36.050Z,2.20
2017-08-19T18:58:04.325Z,1.90
2017-08-19T19:00:32.592Z,2.10
2017-08-19T19:03:00.874Z,2.37
2017-08-19T19:05:29.141Z,2.40
2017-08-19T19:07:57.393Z,2.50
2017-08-19T19:10:25.645Z,2.90
2017-08-19T19:12:53.930Z,2.70
2017-08-19T19:15:22.209Z,2.60
2017-08-19T19:17:51.242Z,2.33
2017-08-19T19:20:19.542Z,2.40
2017-08-19T19:22:48.549Z,2.27
2017-08-19T19:25:16.838Z,2.33
2017-08-19T19:27:45.092Z,2.20
2017-08-19T19:30:13.333Z,2.07
2017-08-19T19:32:41.584Z,1.97
2017-08-19T19:35:09.878Z,2.60
2017-08-19T19:37:38.164Z,2.27
2017-08-19T19:40:06.459Z,2.00
2017-08-19T19:42:34.757Z,1.90
2017-08-19T19:45:03.038Z,1.90
2017-08-19T19:47:31.289Z,1.97
2017-08-19T19:49:59.553Z,2.13
2017-08-19T19:52:27.834Z,1.90
2017-08-19T19:54:56.118Z,2.13
2017-08-19T19:57:24.422Z,1.70
2017-08-19T19:59:52.664Z,2.10
2017-08-19T20:02:20.908Z,1.73
2017-08-19T20:04:49.205Z,1.73
2017-08-19T20:07:17.455Z,1.93
2017-08-19T20:09:45.734Z,1.93
2017-08-19T20:12:14.037Z,1.97
2017-08-19T20:14:42.041Z,1.70
2017-08-19T20:17:10.325Z,1.90
2017-08-19T20:19:38.641Z,1.60
2017-08-19T20:22:06.897Z,1.90
2017-08-19T20:24:35.197Z,1.90
2017-08-19T20:27:03.469Z,1.90
2017-08-19T20:29:32.525Z,1.73
2017-08-19T20:32:00.782Z,1.50
2017-08-19T20:34:29.065Z,1.97
2017-08-19T20:36:57.345Z,1.90
2017-08-19T20:39:26.385Z,1.70
2017-08-19T20:41:54.686Z,1.83
2017-08-19T20:44:22.970Z,1.90
2017-08-19T20:46:51.221Z,1.77
2017-08-19T20:49:19.538Z,1.83
2017-08-19T20:51:47.790Z,1.43
2017-08-19T20:54:16.037Z,1.60
2017-08-19T20:56:44.338Z,1.70
2017-08-19T20:59:13.353Z,1.57
2017-08-19T21:01:41.639Z,1.40
2017-08-19T21:04:09.934Z,1.60
2017-08-19T21:06:38.985Z,1.60
2017-08-19T21:09:07.257Z,1.57
2017-08-19T21:11:35.532Z,1.80
2017-08-19T21:14:04.586Z,1.50
2017-08-19T21:16:32.839Z,1.50
2017-08-19T21:19:01.154Z,1.60
2017-08-19T21:21:29.449Z,1.33
2017-08-19T21:23:57.739Z,1.63
2017-08-19T21:26:26.009Z,1.83
2017-08-19T21:28:55.066Z,1.40
2017-08-19T21:31:23.166Z,1.60
2017-08-19T21:33:51.453Z,1.60
2017-08-19T21:36:19.736Z,1.60
2017-08-19T21:38:48.024Z,1.60
2017-08-19T21:41:17.063Z,1.53
2017-08-19T21:43:45.312Z,1.50
2017-08-19T21:46:13.556Z,1.43
2017-08-19T21:48:41.849Z,1.80
2017-08-19T21:51:10.138Z,1.87
2017-08-19T21:53:39.182Z,1.70
2017-08-19T21:56:07.486Z,1.50
2017-08-19T21:58:36.507Z,1.40
2017-08-19T22:01:04.845Z,1.53
2017-08-19T22:03:33.211Z,1.40
2017-08-19T22:06:01.567Z,1.20
2017-08-19T22:08:29.865Z,1.40
2017-08-19T22:10:58.164Z,1.50
2017-08-19T22:13:26.959Z,1.50
2017-08-19T22:15:55.214Z,1.23
2017-08-19T22:18:23.514Z,1.40
2017-08-19T22:20:51.771Z,1.40
2017-08-19T22:23:20.050Z,1.30
2017-08-19T22:25:48.308Z,1.50
2017-08-19T22:28:16.561Z,1.30
2017-08-19T22:30:44.808Z,1.37
2017-08-19T22:33:13.110Z,1.50
2017-08-19T22:35:42.137Z,1.40
2017-08-19T22:38:10.376Z,1.37
2017-08-19T22:40:38.660Z,1.40
2017-08-19T22:43:06.896Z,1.47
2017-08-19T22:45:35.197Z,1.43
2017-08-19T22:48:03.507Z,1.50
2017-08-19T22:50:31.804Z,1.17
2017-08-19T22:53:00.094Z,1.20
2017-08-19T22:55:28.357Z,1.40
2017-08-19T22:57:56.610Z,1.50
2017-08-19T23:00:24.886Z,1.50
2017-08-19T23:02:53.152Z,1.50
2017-08-19T23:05:22.194Z,1.40
2017-08-19T23:07:50.442Z,1.40
2017-08-19T23:10:18.742Z,1.30
2017-08-19T23:12:47.756Z,1.43
2017-08-19T23:15:16.005Z,1.10
2017-08-19T23:17:44.307Z,2.70
2017-08-19T23:20:12.557Z,2.50
2017-08-19T23:22:40.842Z,2.60
2017-08-19T23:25:09.147Z,2.77
2017-08-19T23:27:37.401Z,2.80
2017-08-19T23:30:05.750Z,2.87
2017-08-19T23:32:33.821Z,2.37
2017-08-19T23:35:02.110Z,2.90
2017-08-19T23:37:30.405Z,2.67
2017-08-19T23:39:58.698Z,3.10
2017-08-19T23:42:26.972Z,3.07
2017-08-19T23:44:56.710Z,3.57
2017-08-19T23:47:24.988Z,3.53
2017-08-19T23:49:53.240Z,3.47
2017-08-19T23:52:21.484Z,3.50
2017-08-19T23:54:49.795Z,3.27
2017-08-19T23:57:18.074Z,3.13
2017-08-19T23:59:46.358Z,3.40
